Time;durP1;ratioP1;P1;durP2;ratioP2;P2;SDS_P1;SDS_P2;PMS_P1;PMS_P2;Temp;Humidity;BMP_temperature;BMP_pressure;BME280_temperature;BME280_humidity;BME280_pressure;Samples;Min_cycle;Max_cycle;Signal;HPM_P1;HPM_P2
2023/02/10 00:02:25;;;;;;;44.33;15.90;;;;;;;-0.42;76.24;102157.37;5097290;56;1141019;-69
2023/02/10 00:07:31;;;;;;;51.70;16.77;;;;;;;-0.44;76.42;102159.11;5117560;56;1140994;-68
2023/02/10 00:12:39;;;;;;;31.10;12.63;;;;;;;-0.47;76.63;102150.48;5096790;56;1141085;-66
2023/02/10 00:17:45;;;;;;;178.30;43.93;;;;;;;-0.50;76.96;102144.00;5096847;55;1141043;-65
2023/02/10 00:22:51;;;;;;;73.87;21.13;;;;;;;-0.54;77.43;102144.89;5116731;56;1142984;-67
2023/02/10 00:27:56;;;;;;;52.33;14.75;;;;;;;-0.61;77.94;102147.94;5097120;56;1140961;-66
2023/02/10 00:33:04;;;;;;;49.30;14.77;;;;;;;-0.67;78.74;102136.30;5097456;56;1141092;-65
2023/02/10 00:38:10;;;;;;;29.77;11.65;;;;;;;-0.72;79.24;102130.26;5097674;56;1141044;-68
2023/02/10 00:43:16;;;;;;;38.73;12.97;;;;;;;-0.79;79.75;102120.36;5116891;56;1140894;-67
2023/02/10 00:48:25;;;;;;;54.00;18.37;;;;;;;-0.85;80.12;102109.13;5096870;56;1140977;-66
2023/02/10 00:53:32;;;;;;;50.27;15.87;;;;;;;-0.87;80.14;102111.72;5097015;56;1140911;-67
2023/02/10 00:58:38;;;;;;;21.83;9.70;;;;;;;-0.87;80.44;102125.14;5117104;55;1141004;-67
2023/02/10 01:03:44;;;;;;;33.17;13.30;;;;;;;-0.90;81.25;102136.41;5096837;56;1138881;-66
2023/02/10 01:08:50;;;;;;;27.80;13.23;;;;;;;-0.87;81.40;102123.84;5096968;56;1141222;-66
2023/02/10 01:13:55;;;;;;;29.47;12.50;;;;;;;-0.83;81.16;102124.27;5116970;56;1145423;-67
2023/02/10 01:19:01;;;;;;;21.93;9.87;;;;;;;-0.82;81.63;102112.57;5096745;56;1140981;-66
2023/02/10 01:24:08;;;;;;;39.78;13.08;;;;;;;-0.77;81.65;102113.42;5092250;56;1139200;-65
2023/02/10 01:29:14;;;;;;;84.05;23.55;;;;;;;-0.72;81.57;102114.67;5092770;56;1141399;-66
2023/02/10 01:34:21;;;;;;;45.07;15.60;;;;;;;-0.70;81.63;102112.93;5115350;56;1141196;-65
2023/02/10 01:39:28;;;;;;;33.27;12.67;;;;;;;-0.65;81.62;102113.78;4965636;57;1141016;-67
2023/02/10 01:44:38;;;;;;;21.47;10.17;;;;;;;-0.61;81.36;102118.06;4989191;57;1140946;-68
2023/02/10 01:49:48;;;;;;;30.83;12.83;;;;;;;-0.58;81.61;102111.55;5055839;57;1141186;-68
2023/02/10 01:54:58;;;;;;;37.10;12.90;;;;;;;-0.54;81.40;102102.01;5061596;56;1140923;-67
2023/02/10 02:00:07;;;;;;;26.70;11.25;;;;;;;-0.52;81.42;102092.47;5116754;56;1141087;-68
2023/02/10 02:05:34;;;;;;;29.80;11.45;;;;;;;-0.46;81.51;102101.07;5120659;55;1140950;-68
2023/02/10 02:11:22;;;;;;;26.73;10.43;;;;;;;-0.43;81.11;102114.48;5140735;56;1141167;-64
2023/02/10 02:16:54;;;;;;;25.00;10.37;;;;;;;-0.37;81.27;102120.52;5120565;56;1141065;-67
2023/02/10 02:22:29;;;;;;;20.37;10.50;;;;;;;-0.34;81.26;102113.14;5059710;56;1140890;-68
2023/02/10 02:28:06;;;;;;;26.13;12.27;;;;;;;-0.34;81.29;102130.04;5118519;56;1140899;-68
2023/02/10 02:33:19;;;;;;;21.70;11.27;;;;;;;-0.33;81.53;102126.57;5121009;56;1141079;-68
2023/02/10 02:38:25;;;;;;;20.08;9.60;;;;;;;-0.30;81.93;102110.05;5073750;56;1140953;-68
2023/02/10 02:43:31;;;;;;;23.17;12.03;;;;;;;-0.31;82.23;102122.22;5036303;56;1139116;-69
2023/02/10 02:49:10;;;;;;;24.37;9.13;;;;;;;-0.29;82.28;102114.39;5012076;56;1140780;-68
2023/02/10 02:54:23;;;;;;;25.70;10.80;;;;;;;-0.31;82.71;102118.33;5040963;56;1139220;-68
2023/02/10 02:59:58;;;;;;;27.50;11.30;;;;;;;-0.32;82.77;102116.59;5061231;56;1141043;-66
2023/02/10 03:05:05;;;;;;;23.83;9.23;;;;;;;-0.32;83.44;102128.73;5042495;56;1141004;-69
2023/02/10 03:10:10;;;;;;;20.43;10.00;;;;;;;-0.32;84.04;102143.03;5043020;55;1139064;-67
2023/02/10 03:15:16;;;;;;;19.43;9.33;;;;;;;-0.33;84.19;102133.50;5062093;56;1140772;-68
2023/02/10 03:20:22;;;;;;;18.00;7.90;;;;;;;-0.32;84.90;102129.59;5043132;55;1138930;-67
2023/02/10 03:25:28;;;;;;;25.93;10.60;;;;;;;-0.33;84.91;102136.97;5042770;56;1139159;-70
2023/02/10 03:30:35;;;;;;;18.98;9.45;;;;;;;-0.32;85.33;102146.49;5061659;56;1141354;-67
2023/02/10 03:35:41;;;;;;;21.33;9.37;;;;;;;-0.31;85.47;102143.45;5022243;56;1139005;-69
2023/02/10 03:40:50;;;;;;;22.43;9.23;;;;;;;-0.29;85.85;102144.28;5015661;56;1138914;-67
2023/02/10 03:45:58;;;;;;;22.73;11.63;;;;;;;-0.29;85.90;102141.69;5062525;56;1138959;-67
2023/02/10 03:51:07;;;;;;;23.47;9.90;;;;;;;-0.30;86.14;102142.55;5112942;56;1206540;-66
2023/02/10 03:56:13;;;;;;;28.02;11.90;;;;;;;-0.30;86.70;102155.55;5129993;56;1139037;-69
2023/02/10 04:01:19;;;;;;;26.43;11.60;;;;;;;-0.33;86.85;102156.46;5129918;55;1140849;-69
2023/02/10 04:06:25;;;;;;;19.03;9.23;;;;;;;-0.33;87.48;102166.00;5149561;56;1140975;-66
2023/02/10 04:11:31;;;;;;;29.05;10.68;;;;;;;-0.34;88.33;102159.94;5129826;55;1138933;-70
2023/02/10 04:16:37;;;;;;;27.23;11.43;;;;;;;-0.30;88.58;102164.22;5129383;55;1140968;-66
2023/02/10 04:21:43;;;;;;;24.23;12.23;;;;;;;-0.29;89.06;102160.74;5148558;56;1141001;-67
2023/02/10 04:26:49;;;;;;;25.27;11.27;;;;;;;-0.29;89.45;102156.84;5128927;56;1141401;-67
2023/02/10 04:31:57;;;;;;;29.65;13.30;;;;;;;-0.32;89.73;102141.73;5122961;55;1141037;-68
2023/02/10 04:37:03;;;;;;;28.00;11.70;;;;;;;-0.36;90.40;102143.05;5089447;56;1140936;-66
2023/02/10 04:42:09;;;;;;;24.12;11.20;;;;;;;-0.35;90.80;102146.50;5072597;56;1140947;-69
2023/02/10 04:47:15;;;;;;;26.07;12.87;;;;;;;-0.37;91.09;102151.71;5052832;56;1141111;-68
2023/02/10 04:52:22;;;;;;;28.87;13.73;;;;;;;-0.37;91.39;102159.52;5091989;56;1141074;-69
2023/02/10 04:57:31;;;;;;;30.23;12.37;;;;;;;-0.38;91.92;102160.81;5087048;55;1140980;-67
2023/02/10 05:02:37;;;;;;;27.93;12.73;;;;;;;-0.38;92.12;102153.88;5126018;56;1141169;-66
2023/02/10 05:07:43;;;;;;;21.43;10.73;;;;;;;-0.37;93.10;102148.25;5103993;55;1141127;-67
2023/02/10 05:12:50;;;;;;;29.93;13.00;;;;;;;-0.37;93.14;102143.91;5045603;56;1140954;-67
2023/02/10 05:17:56;;;;;;;27.27;13.83;;;;;;;-0.34;93.40;102141.73;5061850;55;1140984;-68
2023/02/10 05:23:03;;;;;;;27.67;12.67;;;;;;;-0.34;93.65;102137.84;5069256;55;1141343;-66
2023/02/10 05:28:09;;;;;;;28.10;12.30;;;;;;;-0.34;93.64;102138.27;5089993;56;1192877;-67
2023/02/10 05:33:15;;;;;;;30.43;12.37;;;;;;;-0.42;95.17;102137.88;5096799;56;1141061;-66
2023/02/10 05:38:22;;;;;;;29.45;14.63;;;;;;;-0.48;95.89;102147.46;5095289;56;1143983;-69
2023/02/10 05:43:27;;;;;;;26.30;12.20;;;;;;;-0.54;95.63;102143.59;4946803;57;1140977;-68
2023/02/10 05:48:33;;;;;;;32.55;12.63;;;;;;;-0.60;96.66;102153.56;5098371;56;1140958;-68
2023/02/10 05:53:39;;;;;;;28.90;12.63;;;;;;;-0.62;97.49;102173.53;5129706;56;1141030;-69
2023/02/10 05:58:44;;;;;;;31.70;14.70;;;;;;;-0.62;97.60;102166.17;5090434;56;1140964;-71
2023/02/10 06:03:50;;;;;;;28.00;11.90;;;;;;;-0.61;97.97;102166.59;5087712;56;1141046;-71
2023/02/10 06:08:56;;;;;;;23.83;10.67;;;;;;;-0.59;98.42;102170.02;5092352;56;1141017;-69
2023/02/10 06:14:02;;;;;;;27.22;12.82;;;;;;;-0.54;98.75;102178.23;5058088;56;1141182;-75
2023/02/10 06:19:08;;;;;;;23.60;11.90;;;;;;;-0.50;98.65;102201.17;5078167;56;1141068;-71
2023/02/10 06:24:14;;;;;;;29.80;11.53;;;;;;;-0.46;98.71;102199.00;5094182;56;1141154;-71
2023/02/10 06:29:20;;;;;;;37.47;14.33;;;;;;;-0.45;99.97;102203.30;5104999;56;1141046;-69
2023/02/10 06:34:26;;;;;;;35.87;13.40;;;;;;;-0.41;99.07;102216.71;5078912;56;1141382;-71
2023/02/10 06:39:31;;;;;;;26.10;12.73;;;;;;;-0.38;99.80;102224.06;5068912;55;1141128;-72
2023/02/10 06:44:37;;;;;;;33.20;14.77;;;;;;;-0.35;99.93;102225.79;5112175;56;1141233;-77
2023/02/10 06:49:43;;;;;;;31.67;13.93;;;;;;;-0.33;100.00;102227.95;5092059;56;1141040;-73
2023/02/10 06:54:49;;;;;;;33.93;14.37;;;;;;;-0.29;100.00;102249.57;5085142;56;1143128;-70
2023/02/10 06:59:56;;;;;;;28.23;13.20;;;;;;;-0.25;100.00;102243.05;5060309;56;1143155;-71
2023/02/10 07:05:07;;;;;;;35.67;15.10;;;;;;;-0.23;100.00;102249.11;5083596;56;1142986;-68
2023/02/10 07:10:09;;;;;;;39.53;15.50;;;;;;;-0.19;100.00;102256.03;5088170;56;1143097;-72
2023/02/10 07:15:18;;;;;;;37.17;14.25;;;;;;;-0.15;100.00;102255.12;5089612;56;1143041;-72
2023/02/10 07:20:24;;;;;;;33.05;12.63;;;;;;;-0.09;100.00;102263.33;5112564;56;1143114;-70
2023/02/10 07:25:29;;;;;;;35.87;15.30;;;;;;;-0.08;100.00;102258.13;5090732;56;1143096;-73
2023/02/10 07:30:35;;;;;;;30.20;13.63;;;;;;;-0.04;100.00;102257.25;5082913;56;1143077;-76
2023/02/10 07:35:41;;;;;;;34.60;15.77;;;;;;;0.02;100.00;102268.46;5105014;55;1143033;-70
2023/02/10 07:40:47;;;;;;;31.17;15.23;;;;;;;0.05;100.00;102265.84;5104877;56;1140955;-69
2023/02/10 07:45:53;;;;;;;32.83;14.93;;;;;;;0.09;100.00;102271.47;5074005;56;1140929;-74
2023/02/10 07:50:59;;;;;;;34.77;15.30;;;;;;;0.12;100.00;102272.75;5114808;56;1141037;-67
2023/02/10 07:56:06;;;;;;;27.63;11.43;;;;;;;0.14;100.00;102281.42;5105034;55;1141051;-71
2023/02/10 08:01:13;;;;;;;34.97;15.00;;;;;;;0.17;100.00;102282.23;5136449;55;1141074;-73
2023/02/10 08:06:23;;;;;;;37.75;13.95;;;;;;;0.21;100.00;102280.48;5138639;56;1140925;-70
2023/02/10 08:11:29;;;;;;;26.73;12.03;;;;;;;0.24;100.00;102276.57;5089069;56;1177946;-70
2023/02/10 08:16:37;;;;;;;39.00;16.43;;;;;;;0.29;100.00;102270.91;5035748;57;1141108;-73
2023/02/10 08:21:43;;;;;;;30.93;14.27;;;;;;;0.32;100.00;102291.23;5075483;56;1141127;-73
2023/02/10 08:26:49;;;;;;;44.37;16.47;;;;;;;0.37;100.00;102289.05;5071216;56;1141423;-77
2023/02/10 08:31:55;;;;;;;36.17;17.00;;;;;;;0.41;100.00;102290.77;5088960;55;1141012;-71
2023/02/10 08:37:02;;;;;;;34.03;14.13;;;;;;;0.45;100.00;102291.17;5153782;55;1141072;-75
2023/02/10 08:42:09;;;;;;;36.03;15.63;;;;;;;0.50;100.00;102290.24;5209652;55;1141094;-68
2023/02/10 08:47:15;;;;;;;40.47;16.73;;;;;;;0.54;100.00;102298.47;5050818;55;1141189;-70
2023/02/10 08:52:23;;;;;;;42.10;16.53;;;;;;;0.58;100.00;102304.08;5133252;55;1141009;-65
2023/02/10 08:57:29;;;;;;;57.08;19.80;;;;;;;0.63;100.00;102311.39;5057138;56;1141689;-70
2023/02/10 09:02:36;;;;;;;37.23;14.55;;;;;;;0.66;100.00;102317.02;5079666;56;1140918;-69
2023/02/10 09:07:42;;;;;;;45.57;17.60;;;;;;;0.69;100.00;102311.80;5114682;56;1204728;-69
2023/02/10 09:12:48;;;;;;;33.63;16.52;;;;;;;0.74;100.00;102297.01;5129851;56;1140990;-73
2023/02/10 09:17:55;;;;;;;36.73;16.02;;;;;;;0.77;100.00;102311.28;5071645;56;1141006;-70
2023/02/10 09:23:01;;;;;;;43.27;20.47;;;;;;;0.80;100.00;102309.95;5113372;56;1141109;-71
2023/02/10 09:28:08;;;;;;;42.25;15.23;;;;;;;0.85;100.00;102319.91;5105679;56;1141060;-71
2023/02/10 09:33:14;;;;;;;43.20;18.60;;;;;;;0.87;100.00;102313.39;5119140;56;1258415;-68
2023/02/10 09:38:20;;;;;;;38.50;16.77;;;;;;;0.89;100.00;102312.50;5089997;56;1141063;-70
2023/02/10 09:44:02;;;;;;;42.27;19.23;;;;;;;0.96;100.00;102331.53;5040007;56;1141490;-73
2023/02/10 09:49:24;;;;;;;42.13;18.43;;;;;;;0.96;100.00;102331.53;5093382;56;1140987;-69
2023/02/10 09:54:32;;;;;;;82.13;28.90;;;;;;;0.99;100.00;102316.73;5107701;56;1141044;-73
2023/02/10 09:59:40;;;;;;;66.37;24.32;;;;;;;1.01;100.00;102317.59;5107798;56;1140995;-72
2023/02/10 10:04:47;;;;;;;45.40;16.60;;;;;;;1.04;100.00;102321.91;5108982;55;1141402;-73
2023/02/10 10:10:06;;;;;;;46.68;18.45;;;;;;;1.07;100.00;102311.91;5114493;56;1140988;-73
2023/02/10 10:15:20;;;;;;;68.72;22.50;;;;;;;1.08;100.00;102321.42;4994742;56;1140982;-70
2023/02/10 10:20:42;;;;;;;108.75;30.77;;;;;;;1.08;100.00;102317.08;4939430;58;1140890;-69
2023/02/10 10:26:18;;;;;;;84.13;29.83;;;;;;;1.14;100.00;102329.19;5074604;56;1143222;-73
2023/02/10 10:31:34;;;;;;;45.10;19.47;;;;;;;1.19;100.00;102337.40;5101667;56;1140865;-69
2023/02/10 10:36:50;;;;;;;48.73;17.73;;;;;;;1.25;100.00;102327.33;5111504;55;1140824;-72
2023/02/10 10:42:00;;;;;;;43.60;15.95;;;;;;;1.27;100.00;102325.58;5090921;56;1141178;-73
2023/02/10 10:47:22;;;;;;;42.23;18.13;;;;;;;1.29;100.00;102327.30;5053585;56;1141392;-74
2023/02/10 10:52:35;;;;;;;59.53;22.33;;;;;;;1.31;100.00;102328.59;5090656;56;1141155;-72
2023/02/10 10:57:41;;;;;;;43.03;16.87;;;;;;;1.32;100.00;102322.05;5127446;55;1140878;-73
2023/02/10 11:03:03;;;;;;;47.87;19.20;;;;;;;1.32;100.00;102311.63;5065789;55;1141149;-72
2023/02/10 11:08:12;;;;;;;50.47;21.07;;;;;;;1.36;100.00;102310.73;5097906;56;1141176;-73
2023/02/10 11:13:30;;;;;;;49.75;21.93;;;;;;;1.37;100.00;102307.68;5089124;56;1140982;-73
2023/02/10 11:18:32;;;;;;;52.00;19.47;;;;;;;1.38;100.00;102308.94;5121802;55;1140919;-72
2023/02/10 11:23:50;;;;;;;38.83;17.47;;;;;;;1.41;100.00;102299.78;5120428;55;1141078;-68
2023/02/10 11:28:57;;;;;;;51.40;20.57;;;;;;;1.44;100.00;102302.80;5072947;56;1140886;-71
2023/02/10 11:34:22;;;;;;;43.63;14.43;;;;;;;1.48;100.00;102304.94;5097465;56;1140916;-68
2023/02/10 11:39:44;;;;;;;46.37;14.67;;;;;;;1.53;100.00;102306.59;5082131;56;1140911;-70
2023/02/10 11:45:18;;;;;;;44.63;15.93;;;;;;;1.61;100.00;102295.65;5117303;56;1141074;-69
2023/02/10 11:50:28;;;;;;;49.75;17.57;;;;;;;1.65;100.00;102297.34;5092770;56;1141226;-72
2023/02/10 11:55:41;;;;;;;47.33;19.85;;;;;;;1.69;100.00;102291.19;5097124;55;1140948;-70
2023/02/10 12:01:00;;;;;;;;;;;;;;;1.72;100.00;102291.59;5100114;56;1141056;-70
2023/02/10 12:06:41;;;;;;;47.77;18.87;;;;;;;1.74;100.00;102289.39;5106301;56;974089;-70
2023/02/10 12:12:04;;;;;;;51.17;20.60;;;;;;;1.74;100.00;102295.05;5100417;56;1138883;-70
2023/02/10 12:17:29;;;;;;;54.77;19.40;;;;;;;1.78;100.00;102299.36;5056586;56;1140932;-73
2023/02/10 12:23:03;;;;;;;42.95;15.15;;;;;;;1.82;100.00;102291.92;5057145;56;1140922;-70
2023/02/10 12:28:26;;;;;;;49.30;20.87;;;;;;;1.86;100.00;102295.33;4962592;57;1140948;-72
2023/02/10 12:33:41;;;;;;;46.53;19.83;;;;;;;1.89;100.00;102301.81;4962350;57;1140914;-68
2023/02/10 12:39:19;;;;;;;44.37;17.77;;;;;;;1.93;100.00;102297.84;4985361;57;1141027;-73
2023/02/10 12:45:03;;;;;;;40.20;14.80;;;;;;;1.98;100.00;102297.80;4963182;57;1141121;-70
2023/02/10 12:50:58;;;;;;;70.03;22.87;;;;;;;1.99;100.00;102304.70;5042738;57;1140937;-73
2023/02/10 12:56:48;;;;;;;49.93;17.25;;;;;;;2.06;100.00;102300.70;4946650;57;1141026;-72
2023/02/10 13:02:01;;;;;;;44.95;19.50;;;;;;;2.12;100.00;102301.08;5016066;56;1140794;-70
2023/02/10 13:07:57;;;;;;;47.50;21.15;;;;;;;2.19;100.00;102301.39;5119836;56;1141049;-69
2023/02/10 13:13:13;;;;;;;42.03;18.63;;;;;;;2.22;100.00;102307.87;5060878;56;1141185;-69
2023/02/10 13:18:26;;;;;;;48.03;18.20;;;;;;;2.23;100.00;102300.47;5072987;56;1140816;-70
2023/02/10 13:23:49;;;;;;;48.35;18.23;;;;;;;2.27;100.00;102287.80;5112254;56;1141374;-69
2023/02/10 13:28:59;;;;;;;45.77;19.23;;;;;;;2.27;100.00;102296.94;5135365;55;1140931;-67
2023/02/10 13:34:27;;;;;;;52.53;20.93;;;;;;;2.33;100.00;102298.57;5109046;55;1141004;-69
2023/02/10 13:39:33;;;;;;;45.30;16.50;;;;;;;2.37;100.00;102289.38;5099635;55;1141072;-68
2023/02/10 13:44:42;;;;;;;44.43;16.43;;;;;;;2.42;100.00;102295.84;5136806;55;1141102;-71
2023/02/10 13:49:55;;;;;;;46.33;18.97;;;;;;;2.46;100.00;102296.19;5116814;55;1141021;-67
2023/02/10 13:55:12;;;;;;;39.20;16.23;;;;;;;2.53;100.00;102294.36;5129067;55;1140898;-68
2023/02/10 14:00:25;;;;;;;41.90;17.60;;;;;;;2.57;100.00;102292.13;5116296;55;1172127;-71
2023/02/10 14:05:35;;;;;;;54.93;20.92;;;;;;;2.60;100.00;102293.38;5136233;55;1141135;-71
2023/02/10 14:10:41;;;;;;;44.77;18.80;;;;;;;2.61;100.00;102299.86;5115983;56;1140933;-69
2023/02/10 14:16:18;;;;;;;52.30;19.57;;;;;;;2.62;100.00;102291.14;5116102;56;1141208;-68
2023/02/10 14:21:24;;;;;;;45.57;19.83;;;;;;;2.62;100.00;102287.66;5119579;56;1140966;-67
2023/02/10 14:26:36;;;;;;;44.30;17.83;;;;;;;2.63;100.00;102289.39;5144323;56;1140982;-70
2023/02/10 14:31:44;;;;;;;43.90;18.57;;;;;;;2.66;100.00;102289.34;5128254;56;1140883;-69
2023/02/10 14:37:00;;;;;;;44.73;18.80;;;;;;;2.68;100.00;102291.05;5102795;56;1141098;-69
2023/02/10 14:42:08;;;;;;;83.40;28.92;;;;;;;2.74;100.00;102297.49;5056903;56;1141009;-70
2023/02/10 14:47:21;;;;;;;47.47;18.50;;;;;;;2.79;100.00;102291.72;5064527;56;1141129;-69
2023/02/10 14:52:33;;;;;;;45.25;18.30;;;;;;;2.83;100.00;102292.55;5045237;56;1140967;-70
2023/02/10 14:57:42;;;;;;;47.00;20.70;;;;;;;2.85;100.00;102294.69;5044984;56;1141166;-69
2023/02/10 15:02:58;;;;;;;38.50;16.50;;;;;;;2.88;100.00;102297.70;5038644;56;1140955;-68
2023/02/10 15:08:10;;;;;;;61.67;20.43;;;;;;;2.90;100.00;102299.40;5116467;55;1140866;-69
2023/02/10 15:13:16;;;;;;;48.00;20.03;;;;;;;2.89;100.00;102302.03;5130168;55;1140813;-68
2023/02/10 15:18:32;;;;;;;40.48;16.62;;;;;;;2.90;100.00;102296.78;5062043;55;1141093;-68
2023/02/10 15:23:42;;;;;;;64.00;25.10;;;;;;;2.92;100.00;102315.02;4977292;57;1141348;-69
2023/02/10 15:29:03;;;;;;;64.07;20.67;;;;;;;2.93;100.00;102298.02;5031432;56;1140984;-66
2023/02/10 15:34:25;;;;;;;52.33;19.27;;;;;;;2.91;100.00;102282.80;4986662;56;1141027;-67
2023/02/10 15:39:39;;;;;;;55.57;20.57;;;;;;;2.92;100.00;102284.97;5027146;56;1141020;-68
2023/02/10 15:44:46;;;;;;;46.33;18.50;;;;;;;2.93;100.00;102290.62;5056908;56;1140945;-67
2023/02/10 15:49:58;;;;;;;36.50;17.63;;;;;;;2.95;100.00;102294.07;4942768;58;1140910;-69
2023/02/10 15:55:08;;;;;;;52.17;19.63;;;;;;;2.96;100.00;102289.27;5015344;57;1140884;-68
2023/02/10 16:00:19;;;;;;;48.17;19.07;;;;;;;2.97;100.00;102288.38;5056892;56;1141098;-69
2023/02/10 16:05:27;;;;;;;45.87;20.00;;;;;;;2.96;100.00;102291.44;5061360;56;1141048;-70
2023/02/10 16:10:33;;;;;;;47.07;20.00;;;;;;;2.98;100.00;102291.41;5050284;56;1141007;-69
2023/02/10 16:15:40;;;;;;;43.70;19.35;;;;;;;2.95;100.00;102294.07;5045324;55;1140995;-67
2023/02/10 16:20:46;;;;;;;43.73;17.80;;;;;;;2.96;100.00;102303.64;5145292;55;1141252;-68
2023/02/10 16:25:54;;;;;;;49.20;18.33;;;;;;;2.96;100.00;102309.73;5167359;55;1140870;-70
2023/02/10 16:31:07;;;;;;;48.90;18.23;;;;;;;2.98;100.00;102312.31;5153031;55;1141251;-70
2023/02/10 16:36:15;;;;;;;53.60;19.67;;;;;;;2.96;100.00;102329.33;5068775;55;1140928;-67
2023/02/10 16:41:22;;;;;;;52.93;19.63;;;;;;;2.98;100.00;102322.77;5108238;55;1141130;-68
2023/02/10 16:46:28;;;;;;;46.90;17.43;;;;;;;2.97;100.00;102314.51;5132747;55;1140924;-67
2023/02/10 16:51:34;;;;;;;80.63;32.87;;;;;;;2.96;100.00;102314.95;5096043;55;1140910;-69
2023/02/10 16:56:42;;;;;;;109.90;53.50;;;;;;;2.97;100.00;102313.20;5115780;56;1140900;-69
2023/02/10 17:01:47;;;;;;;81.50;35.83;;;;;;;2.98;100.00;102318.85;5132056;55;1143050;-68
2023/02/10 17:06:57;;;;;;;65.37;31.05;;;;;;;2.99;100.00;102321.88;5116092;55;1140934;-66
2023/02/10 17:12:03;;;;;;;72.80;32.10;;;;;;;3.01;100.00;102320.98;5113643;55;1140823;-67
2023/02/10 17:17:09;;;;;;;54.47;24.03;;;;;;;3.00;100.00;102331.45;5117174;55;1141014;-67
2023/02/10 17:22:15;;;;;;;46.87;20.47;;;;;;;2.98;100.00;102340.62;5137455;55;1140982;-69
2023/02/10 17:27:20;;;;;;;49.63;19.40;;;;;;;3.00;100.00;102347.14;5096120;56;1140933;-69
2023/02/10 17:32:26;;;;;;;58.23;24.55;;;;;;;2.99;100.00;102348.89;5129185;56;1141102;-68
2023/02/10 17:37:32;;;;;;;58.13;20.57;;;;;;;3.00;100.00;102334.06;5090149;55;1141012;-70
2023/02/10 17:42:38;;;;;;;70.87;30.02;;;;;;;3.02;100.00;102319.22;5042559;56;1187139;-69
2023/02/10 17:47:44;;;;;;;51.50;20.17;;;;;;;3.01;100.00;102313.58;5066580;56;1140890;-68
2023/02/10 17:52:51;;;;;;;53.33;20.20;;;;;;;3.01;100.00;102321.42;5085808;56;1140884;-68
2023/02/10 17:57:56;;;;;;;51.63;25.27;;;;;;;3.01;100.00;102311.83;5042453;55;1141151;-70
2023/02/10 18:03:04;;;;;;;56.10;22.17;;;;;;;2.98;100.00;102310.56;5044437;55;1140934;-69
2023/02/10 18:08:11;;;;;;;53.30;22.20;;;;;;;2.98;100.00;102309.26;5038482;55;1141057;-68
2023/02/10 18:13:17;;;;;;;55.05;24.18;;;;;;;2.98;100.00;102311.87;5057861;55;1141013;-70
2023/02/10 18:18:23;;;;;;;52.33;21.27;;;;;;;2.95;100.00;102318.45;5041422;55;1141062;-68
2023/02/10 18:23:32;;;;;;;52.37;23.13;;;;;;;2.95;100.00;102318.45;4991954;56;1141066;-72
2023/02/10 18:28:38;;;;;;;57.63;19.37;;;;;;;2.97;100.00;102307.98;5072538;55;1141119;-69
2023/02/10 18:33:45;;;;;;;54.57;20.07;;;;;;;2.96;100.00;102300.58;4952837;57;1140966;-69
2023/02/10 18:38:50;;;;;;;60.90;23.23;;;;;;;2.96;100.00;102297.97;5039695;55;1141015;-71
2023/02/10 18:43:57;;;;;;;52.23;20.93;;;;;;;2.96;100.00;102282.73;5059576;55;1140954;-69
2023/02/10 18:49:03;;;;;;;59.77;21.53;;;;;;;2.97;100.00;102271.39;5004767;55;1141065;-68
2023/02/10 18:54:09;;;;;;;43.70;17.13;;;;;;;2.94;100.00;102276.66;5126994;55;1141149;-68
2023/02/10 18:59:16;;;;;;;49.95;18.48;;;;;;;2.90;100.00;102274.58;5084543;55;1141133;-69
2023/02/10 19:04:22;;;;;;;48.60;16.57;;;;;;;2.90;100.00;102274.58;5111699;55;1140913;-68
2023/02/10 19:09:28;;;;;;;44.47;17.27;;;;;;;2.89;100.00;102271.55;5080246;55;1141602;-71
2023/02/10 19:14:34;;;;;;;53.27;21.30;;;;;;;2.89;100.00;102287.22;5068370;55;1141021;-71
2023/02/10 19:19:40;;;;;;;53.83;16.30;;;;;;;2.87;100.00;102273.31;5139096;56;1141037;-71
2023/02/10 19:24:46;;;;;;;42.13;17.03;;;;;;;2.86;100.00;102263.75;5050521;55;1141005;-71
2023/02/10 19:29:52;;;;;;;49.63;17.33;;;;;;;2.82;100.00;102241.17;5129076;56;1140818;-70
2023/02/10 19:34:58;;;;;;;44.60;17.80;;;;;;;2.87;100.00;102237.17;5146373;55;1141122;-71
2023/02/10 19:40:06;;;;;;;31.13;12.43;;;;;;;2.87;100.00;102242.41;5022733;56;1141064;-70
2023/02/10 19:45:12;;;;;;;41.98;17.90;;;;;;;2.82;100.00;102242.03;5109192;55;1141065;-69
2023/02/10 19:50:18;;;;;;;47.53;20.37;;;;;;;2.82;100.00;102230.72;5123067;56;1141232;-69
2023/02/10 19:55:23;;;;;;;49.23;18.70;;;;;;;2.80;100.00;102224.21;5145353;56;1141124;-67
2023/02/10 20:00:30;;;;;;;52.23;21.73;;;;;;;2.80;100.00;102227.27;5129343;55;1140977;-69
2023/02/10 20:05:36;;;;;;;47.78;22.10;;;;;;;2.80;100.00;102224.21;5094977;55;1141077;-69
2023/02/10 20:10:42;;;;;;;61.73;27.48;;;;;;;2.79;100.00;102215.09;5055605;56;1141188;-66
2023/02/10 20:15:49;;;;;;;49.67;20.92;;;;;;;2.78;100.00;102219.90;5032439;55;1140983;-70
2023/02/10 20:21:02;;;;;;;41.65;18.12;;;;;;;2.77;100.00;102220.78;5125343;56;1140928;-68
2023/02/10 20:26:12;;;;;;;50.17;21.68;;;;;;;2.77;100.00;102228.62;5132190;56;1140953;-71
2023/02/10 20:31:18;;;;;;;62.03;29.30;;;;;;;2.78;100.00;102224.68;5116399;55;1141223;-72
2023/02/10 20:36:24;;;;;;;53.53;23.33;;;;;;;2.78;100.00;102193.77;5093693;55;1140953;-66
2023/02/10 20:41:31;;;;;;;57.30;24.77;;;;;;;2.78;100.00;102193.77;5040691;57;1141203;-68
2023/02/10 20:46:38;;;;;;;58.37;22.53;;;;;;;2.79;100.00;102187.21;5055177;57;1140851;-70
2023/02/10 20:51:44;;;;;;;53.13;22.93;;;;;;;2.79;100.00;102179.81;5043749;56;1140886;-68
2023/02/10 20:56:49;;;;;;;51.40;21.35;;;;;;;2.77;100.00;102171.14;5127956;55;1140908;-67
2023/02/10 21:01:55;;;;;;;50.67;23.17;;;;;;;2.74;100.00;102177.77;5142895;56;1141619;-68
2023/02/10 21:07:01;;;;;;;56.17;21.90;;;;;;;2.74;100.00;102168.62;5113354;56;1141127;-69
2023/02/10 21:12:07;;;;;;;55.70;21.70;;;;;;;2.71;100.00;102159.08;5103014;56;1140903;-70
2023/02/10 21:17:14;;;;;;;53.50;21.40;;;;;;;2.68;100.00;102163.05;5123981;56;1141065;-69
2023/02/10 21:22:19;;;;;;;51.43;19.30;;;;;;;2.66;100.00;102155.68;5131099;56;1140987;-68
2023/02/10 21:27:25;;;;;;;57.07;22.70;;;;;;;2.66;100.00;102149.15;5086826;56;1140844;-69
2023/02/10 21:32:32;;;;;;;52.07;20.37;;;;;;;2.65;100.00;102148.73;5119633;55;1141178;-71
2023/02/10 21:37:38;;;;;;;63.43;22.70;;;;;;;2.63;100.00;102135.28;5091352;55;1141077;-69
2023/02/10 21:42:43;;;;;;;59.03;23.23;;;;;;;2.59;100.00;102138.42;5036427;57;1141451;-69
2023/02/10 21:47:51;;;;;;;56.50;25.12;;;;;;;2.57;100.00;102121.05;5044605;56;1140934;-68
2023/02/10 21:52:58;;;;;;;48.93;21.17;;;;;;;2.52;100.00;102100.68;5065240;56;1141025;-71
2023/02/10 21:58:04;;;;;;;58.47;25.63;;;;;;;2.47;100.00;102096.39;5036880;56;1140987;-70
2023/02/10 22:03:10;;;;;;;60.80;26.90;;;;;;;2.43;100.00;102084.31;5037188;56;1141411;-70
2023/02/10 22:08:15;;;;;;;60.10;23.20;;;;;;;2.42;100.00;102086.50;5113611;56;1140968;-71
2023/02/10 22:13:21;;;;;;;44.70;17.47;;;;;;;2.38;100.00;102092.66;5137431;56;1141122;-67
2023/02/10 22:18:28;;;;;;;59.93;23.50;;;;;;;2.36;100.00;102089.66;5122213;56;1140877;-68
2023/02/10 22:23:35;;;;;;;51.60;19.33;;;;;;;2.37;100.00;102096.61;5111731;56;1140860;-69
2023/02/10 22:28:42;;;;;;;63.00;24.90;;;;;;;2.36;100.00;102094.44;5132479;56;1140889;-67
2023/02/10 22:33:55;;;;;;;58.37;23.93;;;;;;;2.37;100.00;102086.16;5120090;56;1141073;-67
2023/02/10 22:39:03;;;;;;;87.62;29.42;;;;;;;2.36;100.00;102073.55;5010735;56;1141042;-68
2023/02/10 22:44:10;;;;;;;104.70;38.43;;;;;;;2.36;100.00;102065.72;5033151;56;1141485;-71
2023/02/10 22:49:16;;;;;;;72.37;25.27;;;;;;;2.37;100.00;102060.05;5032377;56;1143099;-68
2023/02/10 22:54:23;;;;;;;54.70;24.00;;;;;;;2.35;100.00;102037.89;5033182;56;1141163;-68
2023/02/10 22:59:29;;;;;;;121.10;30.43;;;;;;;2.34;100.00;102015.72;5077221;56;1140947;-68